createdAt,value
2022-12-15T00:00:23.364Z,7.63
2022-12-15T00:01:44.682Z,7.65
2022-12-15T00:03:06.104Z,8.13
2022-12-15T00:04:27.274Z,8.57
2022-12-15T00:05:49.939Z,8.63
2022-12-15T00:07:11.445Z,9.07
2022-12-15T00:08:32.675Z,8.93
2022-12-15T00:09:53.806Z,8.98
2022-12-15T00:11:15.517Z,7.82
2022-12-15T00:12:36.531Z,8.55
2022-12-15T00:13:57.770Z,8.38
2022-12-15T00:15:19.244Z,9.23
2022-12-15T00:16:40.251Z,7.85
2022-12-15T00:18:01.609Z,8.55
2022-12-15T00:19:22.850Z,8.40
2022-12-15T00:20:44.215Z,8.93
2022-12-15T00:22:05.454Z,9.55
2022-12-15T00:23:31.293Z,9.30
2022-12-15T00:24:52.738Z,8.90
2022-12-15T00:26:14.104Z,8.23
2022-12-15T00:27:35.346Z,8.63
2022-12-15T00:28:56.712Z,8.35
2022-12-15T00:30:18.073Z,8.48
2022-12-15T00:31:39.581Z,9.18
2022-12-15T00:33:01.272Z,8.15
2022-12-15T00:34:22.277Z,9.52
2022-12-15T00:35:43.404Z,8.18
2022-12-15T00:37:05.004Z,7.43
2022-12-15T00:38:32.241Z,7.97
2022-12-15T00:39:35.483Z,8.25
2022-12-15T00:40:38.731Z,7.85
2022-12-15T00:41:42.567Z,10.77
2022-12-15T00:42:45.688Z,7.72
2022-12-15T00:43:52.774Z,8.20
2022-12-15T00:44:56.736Z,9.23
2022-12-15T00:46:18.780Z,10.32
2022-12-15T00:47:22.057Z,8.45
2022-12-15T00:48:25.300Z,8.63
2022-12-15T00:49:48.943Z,9.77
2022-12-15T00:50:54.827Z,7.90
2022-12-15T00:52:16.545Z,7.75
2022-12-15T00:53:39.227Z,8.80
2022-12-15T00:55:00.950Z,8.27
2022-12-15T00:56:22.431Z,9.05
2022-12-15T00:57:43.916Z,8.57
2022-12-15T00:59:05.275Z,9.05
2022-12-15T01:00:27.597Z,9.07
2022-12-15T01:01:49.835Z,9.68
2022-12-15T01:03:11.745Z,8.70
2022-12-15T01:04:33.364Z,8.25
2022-12-15T01:05:55.326Z,8.02
2022-12-15T01:07:16.812Z,7.57
2022-12-15T01:08:38.412Z,9.90
2022-12-15T01:09:59.894Z,10.40
2022-12-15T01:11:21.619Z,9.40
2022-12-15T01:12:42.977Z,7.65
2022-12-15T01:14:04.340Z,8.60
2022-12-15T01:15:26.183Z,9.23
2022-12-15T01:16:47.665Z,7.22
2022-12-15T01:18:09.029Z,7.95
2022-12-15T01:19:30.205Z,9.38
2022-12-15T01:20:34.711Z,8.35
2022-12-15T01:21:37.592Z,8.82
2022-12-15T01:22:41.074Z,9.15
2022-12-15T01:23:43.597Z,8.75
2022-12-15T01:24:46.171Z,10.65
2022-12-15T01:25:51.455Z,8.93
2022-12-15T01:26:54.086Z,8.50
2022-12-15T01:27:56.970Z,9.55
2022-12-15T01:28:59.803Z,8.77
2022-12-15T01:30:02.731Z,7.97
2022-12-15T01:31:12.444Z,9.82
2022-12-15T01:32:15.213Z,9.38
2022-12-15T01:33:19.251Z,9.25
2022-12-15T01:34:22.885Z,9.57
2022-12-15T01:35:27.814Z,10.55
2022-12-15T01:36:30.453Z,9.70
2022-12-15T01:37:34.055Z,10.02
2022-12-15T01:38:36.575Z,9.50
2022-12-15T01:39:57.576Z,9.65
2022-12-15T01:41:05.140Z,8.80
2022-12-15T01:42:12.702Z,8.88
2022-12-15T01:43:22.542Z,9.85
2022-12-15T01:44:25.543Z,8.70
2022-12-15T01:45:30.943Z,9.52
2022-12-15T01:46:33.603Z,10.00
2022-12-15T01:47:36.461Z,9.68
2022-12-15T01:48:46.672Z,9.43
2022-12-15T01:49:49.904Z,9.57
2022-12-15T01:51:05.265Z,10.38
2022-12-15T01:52:10.063Z,8.20
2022-12-15T01:53:14.264Z,8.93
2022-12-15T01:54:28.547Z,9.18
2022-12-15T01:55:32.267Z,9.20
2022-12-15T01:56:39.108Z,9.45
2022-12-15T01:57:42.350Z,9.45
2022-12-15T01:58:49.328Z,9.40
2022-12-15T01:59:57.352Z,10.48
2022-12-15T02:01:02.121Z,9.93
2022-12-15T02:02:05.226Z,9.45
2022-12-15T02:03:09.641Z,9.52
2022-12-15T02:04:12.835Z,9.65
2022-12-15T02:05:15.481Z,11.18
2022-12-15T02:06:21.728Z,9.85
2022-12-15T02:07:24.478Z,10.23
2022-12-15T02:08:27.244Z,10.40
2022-12-15T02:09:30.716Z,10.05
2022-12-15T02:10:58.320Z,9.13
2022-12-15T02:12:28.079Z,9.07
2022-12-15T02:13:42.959Z,7.90
2022-12-15T02:14:58.682Z,9.07
2022-12-15T02:16:39.752Z,7.70
2022-12-15T02:18:04.216Z,8.60
2022-12-15T02:19:27.970Z,9.77
2022-12-15T02:20:38.777Z,10.05
2022-12-15T02:21:55.690Z,8.52
2022-12-15T02:23:32.662Z,8.88
2022-12-15T02:24:53.657Z,8.38
2022-12-15T02:26:24.258Z,10.20
2022-12-15T02:27:35.542Z,9.50
2022-12-15T02:29:09.986Z,9.38
2022-12-15T02:30:37.590Z,9.60
2022-12-15T02:32:04.915Z,8.52
2022-12-15T02:33:30.429Z,7.70
2022-12-15T02:34:42.514Z,9.32
2022-12-15T02:36:06.393Z,9.77
2022-12-15T02:37:20.924Z,9.77
2022-12-15T02:38:36.043Z,8.68
2022-12-15T02:39:39.162Z,8.02
2022-12-15T02:40:42.286Z,9.52
2022-12-15T02:41:47.684Z,8.55
2022-12-15T02:42:55.606Z,9.13
2022-12-15T02:43:59.336Z,9.73
2022-12-15T02:45:17.211Z,8.77
2022-12-15T02:46:42.171Z,9.68
2022-12-15T02:48:06.174Z,8.68
2022-12-15T02:49:27.539Z,8.50
2022-12-15T02:50:58.748Z,9.70
2022-12-15T02:52:25.144Z,8.95
2022-12-15T02:53:57.302Z,8.98
2022-12-15T02:55:24.547Z,7.57
2022-12-15T02:56:38.352Z,7.85
2022-12-15T02:58:01.752Z,9.70
2022-12-15T02:59:22.874Z,8.00
2022-12-15T03:00:26.003Z,10.27
2022-12-15T03:01:41.411Z,9.93
2022-12-15T03:02:52.132Z,9.15
2022-12-15T03:03:56.848Z,8.65
2022-12-15T03:05:00.921Z,9.20
2022-12-15T03:06:04.642Z,9.90
2022-12-15T03:07:10.644Z,8.88
2022-12-15T03:08:13.772Z,9.55
2022-12-15T03:09:17.009Z,9.32
2022-12-15T03:10:23.255Z,9.15
2022-12-15T03:11:26.857Z,9.93
2022-12-15T03:12:33.457Z,9.32
2022-12-15T03:13:36.941Z,7.78
2022-12-15T03:14:40.056Z,10.32
2022-12-15T03:15:43.298Z,8.95
2022-12-15T03:16:46.481Z,9.23
2022-12-15T03:17:49.668Z,9.05
2022-12-15T03:18:52.663Z,8.32
2022-12-15T03:19:55.666Z,10.85
2022-12-15T03:20:58.430Z,9.30
2022-12-15T03:22:01.429Z,9.32
2022-12-15T03:23:04.130Z,9.80
2022-12-15T03:24:07.077Z,10.25
2022-12-15T03:25:09.714Z,9.27
2022-12-15T03:26:12.408Z,8.65
2022-12-15T03:27:15.599Z,8.30
2022-12-15T03:28:18.723Z,9.20
2022-12-15T03:29:21.360Z,10.05
2022-12-15T03:30:24.007Z,9.63
2022-12-15T03:31:26.982Z,8.93
2022-12-15T03:32:30.053Z,9.38
2022-12-15T03:33:34.409Z,8.52
2022-12-15T03:34:37.330Z,8.65
2022-12-15T03:35:40.017Z,9.25
2022-12-15T03:36:42.537Z,9.13
2022-12-15T03:37:45.062Z,9.73
2022-12-15T03:38:47.458Z,9.27
2022-12-15T03:39:49.980Z,9.13
2022-12-15T03:40:52.502Z,8.82
2022-12-15T03:41:55.018Z,9.30
2022-12-15T03:42:58.861Z,10.43
2022-12-15T03:44:01.824Z,9.13
2022-12-15T03:45:05.427Z,8.63
2022-12-15T03:46:08.027Z,9.80
2022-12-15T03:47:10.503Z,8.18
2022-12-15T03:48:13.274Z,9.02
2022-12-15T03:49:15.876Z,9.07
2022-12-15T03:50:21.427Z,8.63
2022-12-15T03:51:24.186Z,9.10
2022-12-15T03:52:26.707Z,9.13
2022-12-15T03:53:29.588Z,9.60
2022-12-15T03:54:32.349Z,10.13
2022-12-15T03:55:35.466Z,10.98
2022-12-15T03:56:38.112Z,9.45
2022-12-15T03:57:40.627Z,9.60
2022-12-15T03:58:43.271Z,8.75
2022-12-15T03:59:45.909Z,8.00
2022-12-15T04:00:48.911Z,10.32
2022-12-15T04:01:51.645Z,9.32
2022-12-15T04:02:54.713Z,10.23
2022-12-15T04:04:01.253Z,10.05
2022-12-15T04:05:04.418Z,10.13
2022-12-15T04:06:07.157Z,9.32
2022-12-15T04:07:09.682Z,9.80
2022-12-15T04:08:13.053Z,8.85
2022-12-15T04:09:15.561Z,10.52
2022-12-15T04:10:18.316Z,8.13
2022-12-15T04:11:20.840Z,8.43
2022-12-15T04:12:23.360Z,11.20
2022-12-15T04:13:25.882Z,9.73
2022-12-15T04:14:28.404Z,9.10
2022-12-15T04:15:30.925Z,8.52
2022-12-15T04:16:33.509Z,8.60
2022-12-15T04:17:36.329Z,8.85
2022-12-15T04:18:38.972Z,7.90
2022-12-15T04:20:00.097Z,8.15
2022-12-15T04:21:02.610Z,9.52
2022-12-15T04:22:05.145Z,8.93
2022-12-15T04:23:08.103Z,9.90
2022-12-15T04:24:29.378Z,8.27
2022-12-15T04:25:50.615Z,8.52
2022-12-15T04:27:11.866Z,8.45
2022-12-15T04:28:33.584Z,8.18
2022-12-15T04:29:54.820Z,8.50
2022-12-15T04:31:27.184Z,8.38
2022-12-15T04:32:50.013Z,8.52
2022-12-15T04:34:15.108Z,8.02
2022-12-15T04:35:36.229Z,7.75
2022-12-15T04:36:59.401Z,7.50
2022-12-15T04:38:20.762Z,8.82
2022-12-15T04:39:42.597Z,7.78
2022-12-15T04:41:03.719Z,7.45
2022-12-15T04:42:25.083Z,8.00
2022-12-15T04:43:46.568Z,7.78
2022-12-15T04:45:08.883Z,8.77
2022-12-15T04:46:30.434Z,8.73
2022-12-15T04:47:51.746Z,9.18
2022-12-15T04:49:13.453Z,8.35
2022-12-15T04:50:35.175Z,8.73
2022-12-15T04:51:56.775Z,7.55
2022-12-15T04:53:33.967Z,8.68
2022-12-15T04:54:55.581Z,8.30
2022-12-15T04:56:18.830Z,7.93
2022-12-15T04:57:40.593Z,8.70
2022-12-15T04:59:02.189Z,8.13
2022-12-15T05:00:24.991Z,8.45
2022-12-15T05:01:46.694Z,8.88
2022-12-15T05:03:11.262Z,8.07
2022-12-15T05:04:35.232Z,9.75
2022-12-15T05:05:57.052Z,9.32
2022-12-15T05:07:18.759Z,8.65
2022-12-15T05:08:40.485Z,7.55
2022-12-15T05:10:03.485Z,9.15
2022-12-15T05:11:25.371Z,9.65
2022-12-15T05:12:47.212Z,8.52
2022-12-15T05:14:08.578Z,8.00
2022-12-15T05:15:30.454Z,7.85
2022-12-15T05:16:52.060Z,7.97
2022-12-15T05:18:13.860Z,7.85
2022-12-15T05:19:35.220Z,8.35
2022-12-15T05:20:56.825Z,7.47
2022-12-15T05:22:18.186Z,7.53
2022-12-15T05:23:39.548Z,7.45
2022-12-15T05:25:00.911Z,8.50
2022-12-15T05:26:22.151Z,7.85
2022-12-15T05:27:43.632Z,7.80
2022-12-15T05:29:04.876Z,6.75
2022-12-15T05:30:26.720Z,9.13
2022-12-15T05:31:48.199Z,6.60
2022-12-15T05:32:50.604Z,8.10
2022-12-15T05:33:58.248Z,8.38
2022-12-15T05:35:03.693Z,9.18
2022-12-15T05:36:06.686Z,8.70
2022-12-15T05:37:09.257Z,9.52
2022-12-15T05:38:11.777Z,8.93
2022-12-15T05:39:14.655Z,9.20
2022-12-15T05:40:17.175Z,9.02
2022-12-15T05:41:21.828Z,9.35
2022-12-15T05:42:24.497Z,8.93
2022-12-15T05:43:28.416Z,8.95
2022-12-15T05:44:31.459Z,8.30
2022-12-15T05:45:33.943Z,11.20
2022-12-15T05:46:37.000Z,9.50
2022-12-15T05:47:39.623Z,8.77
2022-12-15T05:48:42.628Z,9.77
2022-12-15T05:49:45.142Z,9.30
2022-12-15T05:50:47.871Z,9.35
2022-12-15T05:51:52.431Z,9.55
2022-12-15T05:52:55.824Z,8.75
2022-12-15T05:53:58.347Z,9.32
2022-12-15T05:55:00.865Z,9.50
2022-12-15T05:56:05.040Z,9.07
2022-12-15T05:57:07.709Z,8.90
2022-12-15T05:58:10.234Z,10.18
2022-12-15T05:59:13.471Z,7.90
2022-12-15T06:00:16.229Z,8.65
2022-12-15T06:01:19.638Z,9.40
2022-12-15T06:02:22.253Z,8.85
2022-12-15T06:03:24.751Z,8.65
2022-12-15T06:04:27.432Z,8.35
2022-12-15T06:05:30.044Z,9.35
2022-12-15T06:06:32.915Z,8.80
2022-12-15T06:07:36.399Z,9.20
2022-12-15T06:08:41.317Z,8.13
2022-12-15T06:09:43.956Z,8.63
2022-12-15T06:10:55.236Z,9.10
2022-12-15T06:11:59.081Z,8.50
2022-12-15T06:13:01.962Z,8.15
2022-12-15T06:14:04.602Z,10.38
2022-12-15T06:15:07.598Z,7.53
2022-12-15T06:16:15.810Z,8.68
2022-12-15T06:17:18.406Z,8.60
2022-12-15T06:18:21.042Z,8.25
2022-12-15T06:19:23.690Z,8.45
2022-12-15T06:20:26.202Z,8.73
2022-12-15T06:21:37.727Z,9.07
2022-12-15T06:22:40.262Z,8.40
2022-12-15T06:23:43.518Z,8.38
2022-12-15T06:24:46.777Z,8.65
2022-12-15T06:25:49.370Z,7.53
2022-12-15T06:26:52.611Z,9.18
2022-12-15T06:28:00.029Z,8.25
2022-12-15T06:29:07.042Z,9.20
2022-12-15T06:30:10.022Z,8.02
2022-12-15T06:31:13.914Z,8.13
2022-12-15T06:32:16.508Z,8.20
2022-12-15T06:33:20.100Z,8.75
2022-12-15T06:34:22.624Z,8.43
2022-12-15T06:35:25.145Z,9.65
2022-12-15T06:36:28.773Z,7.68
2022-12-15T06:37:31.387Z,8.55
2022-12-15T06:38:34.879Z,9.38
2022-12-15T06:39:37.511Z,8.07
2022-12-15T06:40:40.754Z,8.40
2022-12-15T06:41:43.756Z,8.90
2022-12-15T06:42:46.395Z,9.77
2022-12-15T06:43:50.958Z,9.48
2022-12-15T06:44:53.841Z,8.88
2022-12-15T06:45:57.084Z,9.75
2022-12-15T06:46:59.934Z,8.68
2022-12-15T06:48:02.964Z,7.85
2022-12-15T06:49:05.845Z,10.00
2022-12-15T06:50:09.091Z,8.88
2022-12-15T06:51:17.253Z,7.55
2022-12-15T06:52:20.731Z,8.07
2022-12-15T06:53:25.177Z,9.35
2022-12-15T06:54:28.535Z,8.07
2022-12-15T06:55:31.665Z,9.40
2022-12-15T06:56:39.226Z,9.68
2022-12-15T06:57:42.343Z,7.43
2022-12-15T06:58:45.464Z,8.43
2022-12-15T06:59:48.584Z,9.82
2022-12-15T07:00:51.704Z,8.43
2022-12-15T07:01:54.956Z,8.93
2022-12-15T07:02:58.349Z,8.32
2022-12-15T07:04:03.426Z,9.13
2022-12-15T07:05:06.833Z,8.48
2022-12-15T07:06:12.118Z,9.15
2022-12-15T07:07:15.237Z,10.13
2022-12-15T07:08:18.360Z,8.73
2022-12-15T07:09:21.598Z,8.40
2022-12-15T07:10:24.844Z,9.52
2022-12-15T07:11:28.084Z,9.50
2022-12-15T07:12:32.404Z,7.57
2022-12-15T07:13:35.540Z,8.13
2022-12-15T07:14:38.887Z,8.93
2022-12-15T07:15:42.211Z,8.60
2022-12-15T07:16:46.675Z,9.18
2022-12-15T07:17:51.382Z,9.45
2022-12-15T07:18:54.735Z,8.30
2022-12-15T07:19:57.859Z,9.10
2022-12-15T07:21:07.279Z,8.07
2022-12-15T07:22:10.460Z,9.27
2022-12-15T07:23:13.948Z,8.23
2022-12-15T07:24:17.186Z,8.65
2022-12-15T07:25:21.024Z,9.43
2022-12-15T07:26:24.632Z,8.93
2022-12-15T07:27:27.755Z,9.65
2022-12-15T07:28:31.322Z,10.73
2022-12-15T07:29:34.593Z,8.82
2022-12-15T07:30:39.972Z,8.70
2022-12-15T07:31:43.077Z,8.05
2022-12-15T07:32:49.917Z,9.30
2022-12-15T07:33:54.876Z,8.98
2022-12-15T07:34:57.641Z,8.65
2022-12-15T07:36:01.413Z,9.70
2022-12-15T07:37:04.061Z,10.43
2022-12-15T07:38:07.777Z,10.57
2022-12-15T07:39:10.852Z,12.10
2022-12-15T07:40:13.782Z,13.40
2022-12-15T07:41:16.296Z,9.73
2022-12-15T07:42:19.659Z,10.65
2022-12-15T07:43:22.915Z,10.88
2022-12-15T07:44:25.781Z,9.32
2022-12-15T07:45:28.418Z,9.63
2022-12-15T07:46:31.008Z,11.75
2022-12-15T07:47:33.940Z,10.18
2022-12-15T07:48:36.469Z,10.75
2022-12-15T07:49:39.105Z,8.07
2022-12-15T07:50:41.629Z,9.55
2022-12-15T07:51:44.864Z,7.30
2022-12-15T07:52:47.383Z,9.32
2022-12-15T07:53:51.220Z,9.23
2022-12-15T07:54:53.955Z,8.80
2022-12-15T07:56:09.655Z,10.52
2022-12-15T07:57:12.828Z,10.75
2022-12-15T07:58:15.347Z,10.07
2022-12-15T07:59:17.889Z,9.07
2022-12-15T08:00:20.750Z,10.25
2022-12-15T08:01:24.842Z,8.30
2022-12-15T08:02:27.598Z,7.68
2022-12-15T08:03:30.906Z,9.27
2022-12-15T08:04:33.730Z,9.13
2022-12-15T08:05:36.353Z,9.10
2022-12-15T08:06:38.874Z,9.38
2022-12-15T08:07:41.395Z,9.27
2022-12-15T08:08:50.058Z,9.57
2022-12-15T08:09:53.995Z,7.32
2022-12-15T08:10:56.549Z,8.35
2022-12-15T08:11:59.041Z,8.32
2022-12-15T08:13:01.558Z,9.27
2022-12-15T08:14:07.764Z,9.15
2022-12-15T08:15:12.742Z,9.55
2022-12-15T08:16:15.389Z,9.93
2022-12-15T08:17:17.887Z,7.88
2022-12-15T08:18:20.520Z,8.63
2022-12-15T08:19:23.041Z,8.98
2022-12-15T08:20:25.837Z,8.73
2022-12-15T08:21:28.449Z,9.88
2022-12-15T08:22:30.963Z,8.70
2022-12-15T08:23:34.128Z,8.80
2022-12-15T08:24:36.851Z,8.00
2022-12-15T08:25:39.371Z,9.27
2022-12-15T08:26:43.333Z,9.02
2022-12-15T08:27:45.847Z,9.90
2022-12-15T08:28:48.281Z,8.68
2022-12-15T08:29:52.251Z,7.68
2022-12-15T08:30:55.214Z,8.50
2022-12-15T08:31:57.934Z,9.52
2022-12-15T08:33:01.264Z,8.68
2022-12-15T08:34:05.658Z,8.43
2022-12-15T08:35:25.346Z,7.85
2022-12-15T08:36:32.183Z,7.53
2022-12-15T08:37:34.947Z,9.63
2022-12-15T08:38:39.029Z,9.48
2022-12-15T08:39:41.670Z,9.25
2022-12-15T08:40:44.199Z,8.68
2022-12-15T08:41:46.833Z,8.27
2022-12-15T08:42:49.355Z,8.57
2022-12-15T08:43:52.124Z,8.13
2022-12-15T08:44:54.887Z,9.13
2022-12-15T08:45:57.945Z,8.63
2022-12-15T08:47:00.641Z,8.45
2022-12-15T08:48:03.401Z,7.93
2022-12-15T08:49:06.403Z,9.25
2022-12-15T08:50:09.549Z,8.07
2022-12-15T08:51:12.656Z,7.40
2022-12-15T08:52:15.649Z,8.88
2022-12-15T08:53:33.852Z,7.30
2022-12-15T08:54:36.894Z,7.00
2022-12-15T08:55:40.974Z,7.22
2022-12-15T08:56:44.096Z,7.60
2022-12-15T08:57:47.224Z,7.72
2022-12-15T08:58:55.503Z,7.13
2022-12-15T08:59:58.622Z,6.97
2022-12-15T09:01:03.618Z,7.20
2022-12-15T09:02:07.494Z,7.15
2022-12-15T09:03:10.750Z,8.20
2022-12-15T09:04:13.912Z,6.78
2022-12-15T09:05:17.111Z,8.18
2022-12-15T09:06:22.752Z,9.88
2022-12-15T09:07:25.874Z,8.38
2022-12-15T09:08:31.275Z,6.85
2022-12-15T09:09:34.396Z,8.00
2022-12-15T09:10:42.080Z,8.00
2022-12-15T09:11:45.325Z,7.90
2022-12-15T09:12:48.446Z,7.80
2022-12-15T09:13:51.569Z,7.38
2022-12-15T09:14:54.808Z,6.43
2022-12-15T09:16:10.425Z,7.10
2022-12-15T09:17:14.208Z,6.25
2022-12-15T09:18:17.612Z,6.30
2022-12-15T09:19:20.974Z,6.97
2022-12-15T09:20:24.410Z,7.38
2022-12-15T09:21:30.217Z,6.53
2022-12-15T09:22:33.460Z,8.25
2022-12-15T09:23:37.282Z,6.72
2022-12-15T09:24:41.025Z,5.95
2022-12-15T09:25:44.982Z,7.32
2022-12-15T09:26:48.226Z,6.15
2022-12-15T09:27:51.467Z,7.00
2022-12-15T09:28:58.072Z,5.47
2022-12-15T09:30:01.553Z,5.45
2022-12-15T09:31:05.053Z,5.70
2022-12-15T09:32:13.791Z,5.68
2022-12-15T09:33:17.053Z,5.75
2022-12-15T09:34:19.917Z,5.28
2022-12-15T09:35:22.799Z,6.10
2022-12-15T09:36:26.521Z,6.03
2022-12-15T09:37:31.564Z,5.78
2022-12-15T09:38:36.245Z,5.32
2022-12-15T09:39:39.607Z,5.45
2022-12-15T09:40:42.490Z,5.72
2022-12-15T09:41:55.458Z,5.47
2022-12-15T09:43:25.594Z,5.15
2022-12-15T09:44:23.221Z,5.57
2022-12-15T09:45:34.621Z,5.22
2022-12-15T09:46:55.940Z,5.75
2022-12-15T09:48:07.340Z,5.30
2022-12-15T09:49:23.665Z,4.72
2022-12-15T09:50:39.265Z,5.13
2022-12-15T09:51:52.225Z,4.90
2022-12-15T09:53:00.445Z,5.53
2022-12-15T09:54:04.379Z,5.65
2022-12-15T09:55:21.180Z,4.57
2022-12-15T09:56:40.954Z,5.22
2022-12-15T09:57:53.077Z,5.07
2022-12-15T09:59:23.079Z,5.28
2022-12-15T10:00:34.418Z,4.95
2022-12-15T10:01:56.263Z,4.78
2022-12-15T10:02:58.946Z,5.15
2022-12-15T10:04:15.636Z,4.80
2022-12-15T10:06:06.155Z,5.03
2022-12-15T10:07:06.570Z,5.93
2022-12-15T10:08:09.559Z,5.22
2022-12-15T10:09:29.716Z,5.30
2022-12-15T10:10:47.119Z,4.53
2022-12-15T10:12:16.177Z,4.45
2022-12-15T10:13:31.081Z,9.45
2022-12-15T10:14:49.915Z,6.70
2022-12-15T10:16:03.364Z,5.10
2022-12-15T10:17:43.401Z,5.47
2022-12-15T10:18:50.428Z,5.45
2022-12-15T10:20:17.361Z,4.88
2022-12-15T10:21:28.164Z,4.97
2022-12-15T10:22:34.308Z,5.10
2022-12-15T10:23:37.605Z,4.88
2022-12-15T10:26:34.427Z,4.95
2022-12-15T10:28:14.611Z,5.32
2022-12-15T10:29:21.569Z,5.22
2022-12-15T10:30:24.753Z,5.55
2022-12-15T10:31:41.252Z,5.85
2022-12-15T10:33:02.146Z,5.65
2022-12-15T10:34:33.382Z,5.15
2022-12-15T10:35:37.062Z,5.72
2022-12-15T10:36:55.659Z,5.95
2022-12-15T10:38:00.462Z,5.15
2022-12-15T10:39:03.468Z,5.55
2022-12-15T10:40:06.585Z,5.80
2022-12-15T10:41:12.230Z,5.32
2022-12-15T10:42:22.909Z,4.97
2022-12-15T10:43:46.865Z,5.00
2022-12-15T10:44:57.835Z,6.00
2022-12-15T10:47:37.562Z,5.80
2022-12-15T10:50:28.085Z,4.68
2022-12-15T10:51:37.367Z,4.93
2022-12-15T10:52:40.206Z,5.55
2022-12-15T10:53:50.688Z,4.97
2022-12-15T10:54:55.328Z,5.80
2022-12-15T10:56:04.091Z,6.47
2022-12-15T10:57:31.826Z,5.70
2022-12-15T10:58:47.449Z,5.18
2022-12-15T10:59:53.899Z,6.70
2022-12-15T11:01:19.094Z,5.15
2022-12-15T11:02:25.449Z,6.18
2022-12-15T11:03:29.561Z,5.57
2022-12-15T11:04:34.161Z,5.45
2022-12-15T11:05:37.347Z,5.70
2022-12-15T11:06:42.868Z,5.07
2022-12-15T11:07:52.112Z,4.85
2022-12-15T11:08:58.115Z,5.22
2022-12-15T11:10:02.917Z,4.68
2022-12-15T11:11:47.917Z,5.32
2022-12-15T11:13:22.719Z,4.60
2022-12-15T11:14:38.928Z,4.47
2022-12-15T11:15:51.857Z,4.00
2022-12-15T11:16:59.445Z,4.93
2022-12-15T11:18:16.487Z,4.80
2022-12-15T11:19:56.557Z,4.68
2022-12-15T11:21:08.212Z,5.35
2022-12-15T11:22:23.093Z,4.22
2022-12-15T11:23:46.600Z,5.20
2022-12-15T11:24:58.740Z,4.80
2022-12-15T11:26:07.579Z,4.22
2022-12-15T11:27:39.422Z,4.70
2022-12-15T11:28:53.761Z,3.95
2022-12-15T11:30:11.112Z,4.05
2022-12-15T11:31:23.107Z,4.63
2022-12-15T11:32:29.833Z,5.43
2022-12-15T11:33:32.861Z,5.07
2022-12-15T11:34:48.440Z,4.15
2022-12-15T11:36:28.645Z,4.47
2022-12-15T11:38:03.679Z,4.45
2022-12-15T11:39:23.140Z,4.22
2022-12-15T11:40:40.055Z,4.68
2022-12-15T11:42:08.616Z,4.03
2022-12-15T11:44:00.963Z,4.63
2022-12-15T11:45:30.217Z,4.22
2022-12-15T11:46:55.822Z,3.95
2022-12-15T11:48:14.660Z,5.95
2022-12-15T11:49:40.911Z,5.43
2022-12-15T11:51:07.184Z,4.82
2022-12-15T11:52:48.985Z,4.00
2022-12-15T11:54:03.503Z,4.22
2022-12-15T11:55:32.074Z,5.18
2022-12-15T11:57:13.584Z,5.25
2022-12-15T11:58:40.674Z,4.47
2022-12-15T12:00:06.474Z,4.50
2022-12-15T12:01:23.979Z,5.40
2022-12-15T12:02:32.488Z,4.53
2022-12-15T12:03:37.708Z,5.07
2022-12-15T12:05:09.483Z,4.38
2022-12-15T12:06:24.244Z,4.63
2022-12-15T12:07:44.077Z,4.60
2022-12-15T12:08:59.311Z,4.60
2022-12-15T12:10:13.351Z,5.10
2022-12-15T12:11:57.283Z,4.88
2022-12-15T12:13:20.793Z,3.70
2022-12-15T12:14:50.588Z,3.85
2022-12-15T12:15:56.085Z,3.92
2022-12-15T12:17:12.159Z,5.00
2022-12-15T12:18:26.437Z,4.38
2022-12-15T12:19:37.764Z,3.95
2022-12-15T12:20:47.083Z,4.22
2022-12-15T12:21:53.921Z,4.45
2022-12-15T12:23:23.964Z,4.45
2022-12-15T12:24:38.563Z,4.60
2022-12-15T12:26:02.572Z,4.38
2022-12-15T12:27:09.883Z,3.90
2022-12-15T12:28:27.790Z,3.95
2022-12-15T12:29:40.007Z,4.18
2022-12-15T12:30:50.521Z,4.38
2022-12-15T12:32:15.541Z,4.10
2022-12-15T12:33:44.810Z,4.00
2022-12-15T12:35:31.113Z,4.43
2022-12-15T12:37:43.279Z,3.60
2022-12-15T12:38:51.133Z,4.10
2022-12-15T12:40:00.180Z,4.60
2022-12-15T12:41:07.638Z,4.30
2022-12-15T12:42:20.465Z,4.45
2022-12-15T12:43:39.666Z,4.80
2022-12-15T12:44:42.315Z,3.88
2022-12-15T12:45:59.720Z,4.00
2022-12-15T12:47:23.235Z,4.22
2022-12-15T12:48:40.513Z,4.35
2022-12-15T12:49:50.481Z,5.57
2022-12-15T12:51:10.880Z,3.55
2022-12-15T12:52:30.602Z,4.57
2022-12-15T12:53:34.854Z,4.43
2022-12-15T12:54:37.889Z,4.35
2022-12-15T12:55:42.814Z,4.45
2022-12-15T12:56:48.626Z,3.90
2022-12-15T12:57:52.415Z,4.18
2022-12-15T12:58:55.291Z,3.70
2022-12-15T13:00:21.561Z,4.28
2022-12-15T13:01:32.645Z,4.03
2022-12-15T13:02:38.349Z,3.95
2022-12-15T13:03:44.022Z,4.38
2022-12-15T13:05:21.830Z,4.38
2022-12-15T13:06:36.824Z,4.75
2022-12-15T13:07:41.269Z,4.38
2022-12-15T13:08:51.410Z,4.85
2022-12-15T13:10:22.669Z,3.67
2022-12-15T13:11:56.272Z,4.43
2022-12-15T13:13:20.156Z,4.50
2022-12-15T13:14:36.362Z,4.32
2022-12-15T13:15:45.360Z,4.07
2022-12-15T13:17:26.711Z,5.05
2022-12-15T13:18:50.404Z,4.35
2022-12-15T13:20:00.005Z,4.65
2022-12-15T13:21:35.189Z,3.97
2022-12-15T13:22:40.571Z,5.40
2022-12-15T13:23:43.810Z,4.88
2022-12-15T13:24:51.252Z,4.57
2022-12-15T13:26:12.745Z,5.50
2022-12-15T13:27:16.700Z,5.45
2022-12-15T13:28:37.101Z,5.30
2022-12-15T13:30:03.744Z,4.68
2022-12-15T13:31:22.010Z,5.57
2022-12-15T13:33:17.908Z,6.50
2022-12-15T13:34:24.752Z,6.10
2022-12-15T13:35:33.584Z,5.53
2022-12-15T13:36:42.194Z,6.13
2022-12-15T13:37:56.192Z,5.35
2022-12-15T13:38:59.199Z,5.25
2022-12-15T13:40:01.959Z,5.45
2022-12-15T13:41:22.774Z,6.72
2022-12-15T13:42:38.413Z,6.20
2022-12-15T13:43:49.174Z,5.63
2022-12-15T13:44:57.646Z,5.35
2022-12-15T13:46:09.628Z,6.38
2022-12-15T13:47:28.256Z,6.03
2022-12-15T13:48:53.892Z,5.40
2022-12-15T13:50:07.734Z,5.55
2022-12-15T13:51:35.382Z,5.65
2022-12-15T13:53:30.492Z,5.65
2022-12-15T13:54:40.904Z,5.65
2022-12-15T13:55:56.586Z,6.05
2022-12-15T13:57:05.393Z,5.38
2022-12-15T13:58:17.755Z,7.43
2022-12-15T13:59:30.948Z,5.88
2022-12-15T14:00:33.602Z,6.10
2022-12-15T14:01:36.143Z,7.10
2022-12-15T14:02:38.630Z,6.05
2022-12-15T14:03:56.117Z,6.55
2022-12-15T14:05:21.348Z,6.28
2022-12-15T14:06:24.228Z,6.82
2022-12-15T14:07:28.430Z,5.57
2022-12-15T14:08:31.429Z,6.57
2022-12-15T14:09:38.390Z,6.63
2022-12-15T14:10:53.511Z,6.10
2022-12-15T14:11:57.143Z,5.28
2022-12-15T14:13:15.586Z,6.57
2022-12-15T14:14:25.919Z,7.53
2022-12-15T14:15:33.480Z,6.30
2022-12-15T14:16:36.027Z,5.90
2022-12-15T14:17:39.000Z,6.55
2022-12-15T14:18:42.843Z,6.97
2022-12-15T14:19:50.781Z,8.02
2022-12-15T14:20:54.238Z,6.78
2022-12-15T14:21:58.966Z,6.65
2022-12-15T14:23:01.443Z,7.00
2022-12-15T14:24:40.879Z,7.78
2022-12-15T14:25:53.168Z,7.68
2022-12-15T14:26:56.317Z,7.30
2022-12-15T14:27:58.966Z,6.15
2022-12-15T14:29:03.369Z,7.03
2022-12-15T14:30:29.598Z,6.97
2022-12-15T14:31:32.384Z,7.93
2022-12-15T14:32:35.653Z,6.28
2022-12-15T14:33:42.128Z,6.63
2022-12-15T14:34:50.693Z,6.80
2022-12-15T14:35:57.969Z,7.10
2022-12-15T14:37:07.831Z,7.15
2022-12-15T14:38:45.376Z,7.78
2022-12-15T14:39:50.171Z,8.07
2022-12-15T14:40:56.788Z,7.30
2022-12-15T14:42:01.463Z,7.30
2022-12-15T14:43:06.865Z,6.93
2022-12-15T14:44:38.584Z,6.47
2022-12-15T14:45:42.067Z,7.20
2022-12-15T14:46:48.988Z,7.47
2022-12-15T14:48:30.546Z,7.30
2022-12-15T14:49:24.270Z,6.55
2022-12-15T14:50:26.920Z,7.40
2022-12-15T14:51:32.077Z,7.57
2022-12-15T14:52:39.040Z,8.82
2022-12-15T14:53:43.718Z,9.10
2022-12-15T14:56:30.399Z,9.77
2022-12-15T14:57:39.164Z,8.55
2022-12-15T14:58:42.287Z,8.88
2022-12-15T14:59:48.769Z,11.50
2022-12-15T15:00:54.175Z,12.15
2022-12-15T15:02:30.759Z,11.93
2022-12-15T15:03:06.093Z,9.57
2022-12-15T15:03:12.081Z,4.95
2022-12-15T15:03:41.465Z,10.73
2022-12-15T15:05:00.176Z,14.68
2022-12-15T15:06:26.220Z,11.85
2022-12-15T15:07:30.663Z,10.10
2022-12-15T15:08:37.322Z,18.42
2022-12-15T15:09:42.194Z,16.55
2022-12-15T15:10:45.308Z,16.67
2022-12-15T15:11:51.429Z,17.80
2022-12-15T15:12:54.909Z,17.60
2022-12-15T15:14:03.315Z,11.27
2022-12-15T15:15:08.606Z,17.17
2022-12-15T15:16:19.190Z,24.17
2022-12-15T15:17:28.163Z,14.10
2022-12-15T15:18:31.745Z,10.82
2022-12-15T15:19:39.720Z,12.23
2022-12-15T15:21:14.963Z,11.45
2022-12-15T15:22:27.326Z,14.23
2022-12-15T15:23:31.529Z,10.15
2022-12-15T15:24:40.409Z,12.80
2022-12-15T15:25:57.452Z,13.32
2022-12-15T15:27:31.585Z,10.15
2022-12-15T15:28:40.780Z,11.82
2022-12-15T15:29:44.138Z,12.13
2022-12-15T15:30:56.076Z,12.80
2022-12-15T15:32:07.181Z,14.85
2022-12-15T15:33:11.504Z,10.50
2022-12-15T15:34:14.984Z,9.25
2022-12-15T15:35:19.668Z,11.82
2022-12-15T15:36:23.752Z,19.27
2022-12-15T15:37:26.629Z,14.70
2022-12-15T15:38:35.444Z,12.40
2022-12-15T15:39:38.755Z,11.60
2022-12-15T15:40:41.395Z,15.13
2022-12-15T15:41:44.278Z,11.63
2022-12-15T15:42:46.919Z,12.75
2022-12-15T15:43:49.680Z,11.13